createdAt,value
2018-07-11T00:01:59.008Z,10.40
2018-07-11T00:04:33.879Z,11.33
2018-07-11T00:07:08.752Z,10.35
2018-07-11T00:09:44.069Z,10.13
2018-07-11T00:12:18.905Z,10.23
2018-07-11T00:14:53.746Z,11.03
2018-07-11T00:17:28.752Z,11.65
2018-07-11T00:20:03.550Z,11.25
2018-07-11T00:22:38.473Z,10.88
2018-07-11T00:25:13.489Z,10.60
2018-07-11T00:27:48.400Z,10.78
2018-07-11T00:30:22.729Z,10.65
2018-07-11T00:32:57.659Z,10.20
2018-07-11T00:35:32.529Z,9.95
2018-07-11T00:38:07.427Z,10.03
2018-07-11T00:40:43.344Z,9.45
2018-07-11T00:43:18.251Z,10.13
2018-07-11T00:45:53.705Z,9.20
2018-07-11T00:48:28.555Z,9.28
2018-07-11T00:51:04.065Z,9.40
2018-07-11T00:53:38.945Z,8.50
2018-07-11T00:56:13.233Z,8.63
2018-07-11T00:59:10.376Z,8.75
2018-07-11T01:01:45.281Z,7.95
2018-07-11T01:04:20.191Z,7.80
2018-07-11T01:06:55.070Z,7.60
2018-07-11T01:09:31.219Z,8.05
2018-07-11T01:12:07.089Z,7.37
2018-07-11T01:14:41.927Z,7.28
2018-07-11T01:18:20.423Z,7.42
2018-07-11T01:20:56.242Z,7.00
2018-07-11T01:23:31.491Z,7.08
2018-07-11T01:26:13.812Z,6.37
2018-07-11T01:28:48.746Z,6.53
2018-07-11T01:31:25.100Z,6.87
2018-07-11T01:34:00.332Z,6.87
2018-07-11T01:36:35.178Z,6.53
2018-07-11T01:39:09.962Z,6.25
2018-07-11T01:41:44.799Z,6.42
2018-07-11T01:44:19.560Z,6.22
2018-07-11T01:46:55.400Z,6.75
2018-07-11T01:49:30.261Z,6.12
2018-07-11T01:52:16.025Z,6.90
2018-07-11T01:54:51.843Z,6.37
2018-07-11T01:57:26.708Z,5.87
2018-07-11T02:00:02.572Z,5.75
2018-07-11T02:02:37.437Z,6.10
2018-07-11T02:05:13.303Z,6.35
2018-07-11T02:07:48.179Z,6.17
2018-07-11T02:10:23.142Z,6.15
2018-07-11T02:12:59.752Z,5.60
2018-07-11T02:15:34.657Z,6.03
2018-07-11T02:18:08.982Z,5.60
2018-07-11T02:20:43.278Z,5.47
2018-07-11T02:23:18.227Z,5.75
2018-07-11T02:25:52.557Z,5.28
2018-07-11T02:28:27.436Z,5.50
2018-07-11T02:31:02.421Z,6.30
2018-07-11T02:33:37.300Z,6.40
2018-07-11T02:36:13.107Z,6.08
2018-07-11T02:38:48.989Z,6.42
2018-07-11T02:41:23.802Z,6.65
2018-07-11T02:43:58.748Z,6.17
2018-07-11T02:46:38.815Z,6.47
2018-07-11T02:49:13.640Z,7.05
2018-07-11T02:51:48.771Z,6.87
2018-07-11T02:54:23.626Z,6.95
2018-07-11T02:56:58.881Z,7.10
2018-07-11T02:59:34.061Z,7.22
2018-07-11T03:02:16.419Z,7.90
2018-07-11T03:04:58.082Z,7.17
2018-07-11T03:07:34.080Z,7.25
2018-07-11T03:10:09.929Z,7.05
2018-07-11T03:12:44.776Z,7.12
2018-07-11T03:15:19.568Z,7.78
2018-07-11T03:17:55.436Z,7.15
2018-07-11T03:20:30.320Z,8.28
2018-07-11T03:23:05.604Z,7.45
2018-07-11T03:25:40.534Z,8.15
2018-07-11T03:28:15.596Z,7.25
2018-07-11T03:30:50.488Z,7.65
2018-07-11T03:33:25.279Z,7.87
2018-07-11T03:36:01.068Z,8.98
2018-07-11T03:38:35.907Z,7.80
2018-07-11T03:41:10.819Z,8.25
2018-07-11T03:43:45.924Z,8.05
2018-07-11T03:46:20.688Z,9.13
2018-07-11T03:48:55.491Z,8.38
2018-07-11T03:51:29.934Z,8.70
2018-07-11T03:54:04.783Z,10.32
2018-07-11T03:56:46.464Z,9.38
2018-07-11T03:59:21.334Z,9.68
2018-07-11T04:01:57.172Z,11.10
2018-07-11T04:04:31.985Z,10.03
2018-07-11T04:07:06.821Z,10.32
2018-07-11T04:09:42.697Z,10.55
2018-07-11T04:12:18.463Z,10.08
2018-07-11T04:14:53.731Z,11.05
2018-07-11T04:17:28.508Z,10.40
2018-07-11T04:20:03.374Z,10.00
2018-07-11T04:22:38.226Z,10.23
2018-07-11T04:25:13.426Z,9.48
2018-07-11T04:27:48.566Z,8.73
2018-07-11T04:30:22.882Z,9.50
2018-07-11T04:32:57.911Z,10.10
2018-07-11T04:35:32.272Z,9.33
2018-07-11T04:38:07.104Z,10.40
2018-07-11T04:40:42.022Z,10.98
2018-07-11T04:43:17.154Z,10.70
2018-07-11T04:45:52.253Z,9.95
2018-07-11T04:48:27.216Z,12.03
2018-07-11T04:51:02.125Z,12.93
2018-07-11T04:53:37.031Z,11.33
2018-07-11T04:56:11.909Z,11.28
2018-07-11T04:58:46.816Z,10.35
2018-07-11T05:01:21.775Z,10.88
2018-07-11T05:03:56.700Z,9.93
2018-07-11T05:06:31.492Z,8.93
2018-07-11T05:09:08.567Z,8.53
2018-07-11T05:11:49.345Z,9.20
2018-07-11T05:14:24.270Z,8.33
2018-07-11T05:16:58.626Z,8.70
2018-07-11T05:19:33.478Z,9.48
2018-07-11T05:22:08.280Z,8.88
2018-07-11T05:24:43.140Z,8.83
2018-07-11T05:27:17.932Z,9.20
2018-07-11T05:29:52.765Z,8.55
2018-07-11T05:32:27.909Z,8.90
2018-07-11T05:35:19.684Z,9.28
2018-07-11T05:38:05.729Z,8.35
2018-07-11T05:40:44.835Z,8.90
2018-07-11T05:43:22.615Z,9.00
2018-07-11T05:45:59.932Z,7.12
2018-07-11T05:48:35.653Z,9.13
2018-07-11T05:51:10.810Z,8.13
2018-07-11T05:53:47.628Z,9.53
2018-07-11T05:56:24.674Z,7.80
2018-07-11T05:59:01.812Z,9.35
2018-07-11T06:01:37.261Z,9.15
2018-07-11T06:04:12.616Z,8.43
2018-07-11T06:06:58.033Z,8.45
2018-07-11T06:09:32.872Z,9.58
2018-07-11T06:12:09.035Z,9.33
2018-07-11T06:14:43.868Z,10.20
2018-07-11T06:17:19.900Z,9.23
2018-07-11T06:19:55.751Z,9.25
2018-07-11T06:22:30.527Z,9.63
2018-07-11T06:25:05.394Z,8.03
2018-07-11T06:27:41.240Z,8.20
2018-07-11T06:30:16.032Z,8.90
2018-07-11T06:32:50.849Z,9.10
2018-07-11T06:35:25.673Z,8.58
2018-07-11T06:38:01.465Z,9.60
2018-07-11T06:40:36.352Z,9.23
2018-07-11T06:43:11.148Z,8.28
2018-07-11T06:45:46.967Z,8.83
2018-07-11T06:48:21.747Z,9.38
2018-07-11T06:50:56.672Z,8.30
2018-07-11T06:53:31.477Z,8.38
2018-07-11T06:56:06.305Z,8.68
2018-07-11T06:58:41.176Z,9.45
2018-07-11T07:01:16.134Z,8.98
2018-07-11T07:03:50.942Z,9.20
2018-07-11T07:06:25.716Z,9.45
2018-07-11T07:09:00.692Z,8.73
2018-07-11T07:11:35.532Z,8.98
2018-07-11T07:14:10.315Z,9.30
2018-07-11T07:16:45.113Z,8.93
2018-07-11T07:19:20.425Z,8.68
2018-07-11T07:21:55.525Z,8.53
2018-07-11T07:24:31.344Z,8.18
2018-07-11T07:27:06.183Z,8.35
2018-07-11T07:29:40.980Z,7.90
2018-07-11T07:32:15.752Z,7.92
2018-07-11T07:34:50.693Z,8.23
2018-07-11T07:37:26.508Z,8.48
2018-07-11T07:40:01.284Z,9.10
2018-07-11T07:42:36.064Z,9.05
2018-07-11T07:45:10.968Z,9.53
2018-07-11T07:47:46.257Z,9.23
2018-07-11T07:50:21.084Z,8.58
2018-07-11T07:52:56.048Z,9.08
2018-07-11T07:55:31.940Z,8.50
2018-07-11T07:58:07.980Z,8.75
2018-07-11T08:00:42.308Z,8.63
2018-07-11T08:03:16.614Z,8.35
2018-07-11T08:05:52.392Z,7.65
2018-07-11T08:08:28.161Z,7.75
2018-07-11T08:11:02.992Z,6.70
2018-07-11T08:13:37.825Z,6.47
2018-07-11T08:16:13.629Z,6.95
2018-07-11T08:18:47.902Z,6.60
2018-07-11T08:21:23.763Z,7.72
2018-07-11T08:24:09.663Z,7.12
2018-07-11T08:26:55.411Z,6.28
2018-07-11T08:29:41.253Z,5.50
2018-07-11T08:32:34.222Z,5.78
2018-07-11T08:36:27.911Z,5.80
2018-07-11T08:39:13.738Z,6.10
2018-07-11T08:44:08.150Z,5.92
2018-07-11T08:51:04.072Z,5.22
2018-07-11T08:53:50.665Z,6.12
2018-07-11T08:56:36.685Z,6.30
2018-07-11T08:59:18.073Z,7.08
2018-07-11T09:02:06.856Z,7.40
2018-07-11T09:04:48.402Z,7.45
2018-07-11T09:09:35.224Z,8.15
2018-07-11T09:12:23.752Z,7.87
2018-07-11T09:17:20.418Z,8.08
2018-07-11T09:21:05.068Z,7.90
2018-07-11T09:24:47.060Z,7.35
2018-07-11T09:27:21.905Z,7.17
2018-07-11T09:29:57.016Z,8.60
2018-07-11T09:32:31.830Z,7.87
2018-07-11T09:35:07.749Z,8.05
2018-07-11T09:37:42.576Z,8.25
2018-07-11T09:40:17.409Z,7.78
2018-07-11T09:42:52.300Z,8.78
2018-07-11T09:45:28.058Z,7.25
2018-07-11T09:48:02.857Z,7.65
2018-07-11T09:50:37.629Z,7.33
2018-07-11T09:53:12.680Z,6.87
2018-07-11T09:55:47.542Z,8.03
2018-07-11T09:58:22.381Z,7.65
2018-07-11T10:01:02.451Z,7.40
2018-07-11T10:03:37.271Z,7.37
2018-07-11T10:06:12.168Z,8.13
2018-07-11T10:08:46.975Z,7.58
2018-07-11T10:11:21.768Z,8.05
2018-07-11T10:13:56.536Z,6.92
2018-07-11T10:16:31.616Z,7.87
2018-07-11T10:19:06.709Z,7.35
2018-07-11T10:21:42.650Z,7.37
2018-07-11T10:24:17.687Z,6.00
2018-07-11T10:26:52.506Z,6.20
2018-07-11T10:29:27.213Z,6.10
2018-07-11T10:32:02.028Z,5.92
2018-07-11T10:34:36.835Z,6.12
2018-07-11T10:37:11.619Z,6.90
2018-07-11T10:39:46.348Z,6.28
2018-07-11T10:42:21.213Z,6.67
2018-07-11T10:44:56.075Z,6.00
2018-07-11T10:47:30.525Z,5.97
2018-07-11T10:50:05.263Z,4.70
2018-07-11T10:52:40.085Z,4.20
2018-07-11T10:55:15.823Z,4.83
2018-07-11T10:57:50.976Z,4.85
2018-07-11T11:00:36.657Z,4.83
2018-07-11T11:03:04.015Z,4.72
2018-07-11T11:05:38.237Z,4.58
2018-07-11T11:08:13.072Z,5.03
2018-07-11T11:10:47.804Z,5.05
2018-07-11T11:13:23.264Z,4.55
2018-07-11T11:15:58.188Z,4.50
2018-07-11T11:18:33.047Z,4.20
2018-07-11T11:21:08.881Z,4.10
2018-07-11T11:23:43.730Z,4.97
2018-07-11T11:26:18.453Z,5.15
2018-07-11T11:28:54.260Z,5.30
2018-07-11T11:31:29.028Z,4.33
2018-07-11T11:34:03.868Z,4.40
2018-07-11T11:36:38.618Z,4.92
2018-07-11T11:39:13.460Z,5.40
2018-07-11T11:41:49.318Z,4.75
2018-07-11T11:44:24.256Z,5.05
2018-07-11T11:47:02.594Z,4.30
2018-07-11T11:49:37.376Z,4.92
2018-07-11T11:52:12.444Z,6.40
2018-07-11T11:54:47.163Z,6.15
2018-07-11T11:57:22.203Z,4.60
2018-07-11T11:59:56.956Z,4.62
2018-07-11T12:02:32.728Z,4.70
2018-07-11T12:05:07.476Z,4.17
2018-07-11T12:07:42.634Z,5.25
2018-07-11T12:10:17.736Z,4.85
2018-07-11T12:12:53.070Z,5.42
2018-07-11T12:15:27.881Z,5.12
2018-07-11T12:18:02.700Z,5.30
2018-07-11T12:20:38.618Z,5.87
2018-07-11T12:23:14.458Z,5.95
2018-07-11T12:26:05.799Z,5.80
2018-07-11T12:28:41.646Z,5.58
2018-07-11T12:31:16.478Z,6.35
2018-07-11T12:33:51.358Z,5.75
2018-07-11T12:36:27.130Z,5.83
2018-07-11T12:39:01.974Z,6.10
2018-07-11T12:41:37.219Z,6.12
2018-07-11T12:44:12.996Z,5.55
2018-07-11T12:46:47.794Z,5.72
2018-07-11T12:49:22.654Z,5.33
2018-07-11T12:51:58.440Z,6.12
2018-07-11T12:54:33.412Z,6.50
2018-07-11T12:57:08.726Z,6.78
2018-07-11T12:59:43.526Z,6.87
2018-07-11T13:02:18.408Z,7.22
2018-07-11T13:04:53.637Z,7.10
2018-07-11T13:07:28.411Z,6.78
2018-07-11T13:10:04.416Z,5.53
2018-07-11T13:12:39.143Z,4.97
2018-07-11T13:15:13.899Z,6.08
2018-07-11T13:17:49.632Z,7.30
2018-07-11T13:20:24.452Z,5.40
2018-07-11T13:22:59.192Z,5.03
2018-07-11T13:25:34.061Z,5.08
2018-07-11T13:28:09.823Z,4.47
2018-07-11T13:30:45.132Z,5.20
2018-07-11T13:33:19.856Z,6.00
2018-07-11T13:35:54.569Z,5.75
2018-07-11T13:38:29.342Z,6.58
2018-07-11T13:41:05.174Z,7.05
2018-07-11T13:43:39.971Z,7.00
2018-07-11T13:46:15.717Z,6.65
2018-07-11T13:48:51.683Z,7.00
2018-07-11T13:51:26.448Z,6.78
2018-07-11T13:54:01.300Z,5.60
2018-07-11T13:56:37.129Z,6.97
2018-07-11T13:59:11.891Z,5.92
2018-07-11T14:01:46.635Z,5.20
2018-07-11T14:04:21.448Z,5.47
2018-07-11T14:06:56.251Z,4.87
2018-07-11T14:09:30.567Z,4.80
2018-07-11T14:12:04.851Z,5.47
2018-07-11T14:14:40.176Z,5.50
2018-07-11T14:17:14.901Z,5.70
2018-07-11T14:19:49.729Z,5.92
2018-07-11T14:22:24.569Z,6.00
2018-07-11T14:24:59.437Z,6.15
2018-07-11T14:27:38.614Z,7.25
2018-07-11T14:30:13.152Z,7.12
2018-07-11T14:32:55.850Z,6.62
2018-07-11T14:35:30.661Z,7.40
2018-07-11T14:38:05.402Z,6.85
2018-07-11T14:40:40.179Z,6.58
2018-07-11T14:43:14.932Z,5.87
2018-07-11T14:45:49.786Z,5.97
2018-07-11T14:48:24.783Z,5.47
2018-07-11T14:51:01.355Z,5.85
2018-07-11T14:53:36.465Z,6.03
2018-07-11T14:56:10.756Z,5.67
2018-07-11T14:58:46.577Z,5.45
2018-07-11T15:01:23.042Z,6.40
2018-07-11T15:03:57.805Z,6.70
2018-07-11T15:06:32.607Z,7.87
2018-07-11T15:09:07.661Z,6.80
2018-07-11T15:11:41.894Z,7.35
2018-07-11T15:14:16.737Z,8.50
2018-07-11T15:16:51.009Z,7.65
2018-07-11T15:19:26.368Z,8.60
2018-07-11T15:22:01.127Z,8.58
2018-07-11T15:24:36.028Z,8.90
2018-07-11T15:27:11.796Z,8.90
2018-07-11T15:29:47.647Z,8.83
2018-07-11T15:32:22.544Z,9.80
2018-07-11T15:34:57.497Z,9.83
2018-07-11T15:37:32.340Z,9.53
2018-07-11T15:40:07.517Z,10.08
2018-07-11T15:42:44.512Z,10.13
2018-07-11T15:45:19.421Z,10.28
2018-07-11T15:47:54.416Z,10.95
2018-07-11T15:50:28.779Z,9.33
2018-07-11T15:53:03.623Z,10.08
2018-07-11T15:55:38.452Z,9.93
2018-07-11T15:58:15.320Z,9.85
2018-07-11T16:00:50.201Z,10.20
2018-07-11T16:03:26.705Z,10.18
2018-07-11T16:06:01.560Z,9.73
2018-07-11T16:08:36.426Z,9.58
2018-07-11T16:11:11.361Z,11.10
2018-07-11T16:13:47.108Z,11.75
2018-07-11T16:16:21.918Z,11.45
2018-07-11T16:18:56.738Z,12.30
2018-07-11T16:21:31.039Z,11.90
2018-07-11T16:24:05.883Z,14.07
2018-07-11T16:26:40.182Z,13.65
2018-07-11T16:29:15.036Z,12.80
2018-07-11T16:31:49.836Z,13.53
2018-07-11T16:34:24.644Z,11.90
2018-07-11T16:36:59.466Z,12.75
2018-07-11T16:39:34.413Z,12.82
2018-07-11T16:42:09.402Z,12.47
2018-07-11T16:44:44.679Z,13.22
2018-07-11T16:47:19.515Z,12.73
2018-07-11T16:49:54.361Z,12.98
2018-07-11T16:52:29.502Z,12.50
2018-07-11T16:55:05.317Z,13.70
2018-07-11T16:57:46.929Z,13.30
2018-07-11T17:00:28.796Z,12.15
2018-07-11T17:03:10.297Z,12.05
2018-07-11T17:05:53.732Z,11.08
2018-07-11T17:08:32.128Z,10.03
2018-07-11T17:11:21.392Z,10.82
2018-07-11T17:13:59.996Z,9.05
2018-07-11T17:16:42.553Z,10.58
2018-07-11T17:19:23.130Z,10.35
2018-07-11T17:22:00.776Z,10.95
2018-07-11T17:24:43.995Z,11.10
2018-07-11T17:27:22.672Z,11.85
2018-07-11T17:30:02.330Z,12.63
2018-07-11T17:32:37.184Z,12.82
2018-07-11T17:35:12.020Z,12.98
2018-07-11T17:37:47.003Z,13.62
2018-07-11T17:40:25.212Z,13.80
2018-07-11T17:43:00.065Z,13.35
2018-07-11T17:45:37.004Z,13.98
2018-07-11T17:48:24.538Z,12.82
2018-07-11T17:51:03.372Z,13.00
2018-07-11T17:53:38.977Z,17.48
2018-07-11T17:56:14.608Z,16.02
2018-07-11T17:58:56.185Z,15.50
2018-07-11T18:01:43.595Z,16.67
2018-07-11T18:04:32.342Z,16.40
2018-07-11T18:07:13.812Z,16.27
2018-07-11T18:09:59.992Z,15.55
2018-07-11T18:12:39.271Z,15.65
2018-07-11T18:15:36.707Z,15.60
2018-07-11T18:18:32.963Z,16.37
2018-07-11T18:21:17.518Z,16.25
2018-07-11T18:26:04.445Z,16.60
2018-07-11T18:28:47.264Z,16.10
2018-07-11T18:33:33.084Z,16.02
2018-07-11T18:36:17.379Z,15.75
2018-07-11T18:39:13.025Z,17.50
2018-07-11T18:44:08.480Z,18.35
2018-07-11T18:46:56.940Z,17.98
2018-07-11T18:49:39.320Z,19.07
2018-07-11T18:52:21.760Z,16.65
2018-07-11T18:55:01.455Z,22.05
2018-07-11T18:57:46.879Z,20.95
2018-07-11T19:00:29.173Z,20.48
2018-07-11T19:03:11.267Z,20.50
2018-07-11T19:05:51.640Z,22.10
2018-07-11T19:08:52.961Z,23.18
2018-07-11T19:11:41.376Z,23.52
2018-07-11T19:14:27.116Z,23.52
2018-07-11T19:17:10.572Z,23.70
2018-07-11T19:20:54.514Z,25.45
2018-07-11T19:23:39.977Z,26.00
2018-07-11T19:26:21.919Z,24.77
2018-07-11T19:29:10.244Z,25.08
2018-07-11T19:31:56.256Z,25.88
2018-07-11T19:34:49.293Z,26.80
2018-07-11T19:38:07.917Z,27.50
2018-07-11T19:40:50.999Z,27.90
2018-07-11T19:46:12.108Z,26.93
2018-07-11T19:49:02.370Z,30.17
2018-07-11T19:52:45.828Z,29.45
2018-07-11T19:56:04.348Z,29.82
2018-07-11T19:58:38.599Z,31.20
2018-07-11T20:01:14.452Z,29.10
2018-07-11T20:03:49.424Z,31.45
2018-07-11T20:06:24.252Z,31.00
2018-07-11T20:08:59.109Z,29.70
2018-07-11T20:11:34.001Z,31.90
2018-07-11T20:14:09.808Z,31.57
2018-07-11T20:16:44.648Z,29.05
2018-07-11T20:19:19.590Z,29.37
2018-07-11T20:21:54.452Z,27.87
2018-07-11T20:24:28.705Z,27.55
2018-07-11T20:27:03.542Z,27.02
2018-07-11T20:29:38.351Z,25.77
2018-07-11T20:32:13.243Z,23.10
2018-07-11T20:34:49.048Z,22.40
2018-07-11T20:37:24.939Z,22.58
2018-07-11T20:39:59.800Z,22.05
2018-07-11T20:42:34.667Z,22.48
2018-07-11T20:45:09.472Z,23.05
2018-07-11T20:47:44.340Z,22.70
2018-07-11T20:50:33.195Z,22.65
2018-07-11T20:55:55.676Z,21.05
2018-07-11T20:58:45.185Z,20.48
2018-07-11T21:01:32.032Z,21.15
2018-07-11T21:04:20.739Z,20.10
2018-07-11T21:07:22.235Z,21.55
2018-07-11T21:13:09.289Z,21.45
2018-07-11T21:15:55.521Z,20.32
2018-07-11T21:18:43.711Z,19.65
2018-07-11T21:21:18.535Z,18.52
2018-07-11T21:24:07.306Z,18.17
2018-07-11T21:29:49.045Z,17.77
2018-07-11T21:32:31.079Z,19.25
2018-07-11T21:35:06.935Z,17.60
2018-07-11T21:37:41.771Z,17.10
2018-07-11T21:40:16.624Z,17.90
2018-07-11T21:42:51.351Z,18.45
2018-07-11T21:45:26.212Z,18.12
2018-07-11T21:48:00.987Z,19.02
2018-07-11T21:50:35.721Z,17.98
2018-07-11T21:53:11.519Z,18.82
2018-07-11T21:55:46.295Z,19.90
2018-07-11T21:58:21.143Z,19.85
2018-07-11T22:01:02.181Z,20.45
2018-07-11T22:03:36.972Z,20.43
2018-07-11T22:06:12.764Z,20.25
2018-07-11T22:08:47.516Z,19.57
2018-07-11T22:11:23.308Z,19.60
2018-07-11T22:13:58.460Z,20.10
2018-07-11T22:16:33.257Z,20.52
2018-07-11T22:19:09.016Z,20.57
2018-07-11T22:21:42.524Z,18.70
2018-07-11T22:24:15.816Z,19.45
2018-07-11T22:26:49.053Z,20.17
2018-07-11T22:29:24.361Z,18.87
2018-07-11T22:31:57.602Z,18.67
2018-07-11T22:34:30.876Z,19.57
2018-07-11T22:37:04.117Z,19.40
2018-07-11T22:39:37.400Z,19.02
2018-07-11T22:42:10.667Z,19.42
2018-07-11T22:44:43.944Z,19.48
2018-07-11T22:47:17.389Z,19.52
2018-07-11T22:49:55.824Z,20.80
2018-07-11T22:52:31.335Z,19.50
2018-07-11T22:55:04.764Z,18.75
2018-07-11T22:57:38.064Z,18.85
2018-07-11T23:00:11.331Z,20.23
2018-07-11T23:02:44.633Z,20.50
2018-07-11T23:05:17.883Z,19.90
2018-07-11T23:07:51.460Z,19.57
2018-07-11T23:10:24.740Z,19.95
2018-07-11T23:12:58.054Z,19.77
2018-07-11T23:15:31.321Z,20.23
2018-07-11T23:18:04.616Z,19.48
2018-07-11T23:20:37.867Z,20.45
2018-07-11T23:23:12.277Z,20.05
2018-07-11T23:25:47.230Z,20.43
2018-07-11T23:28:20.543Z,18.95
2018-07-11T23:30:53.820Z,20.08
2018-07-11T23:33:27.096Z,19.12
2018-07-11T23:36:00.411Z,19.27
2018-07-11T23:38:33.749Z,20.60
2018-07-11T23:41:07.221Z,20.32
2018-07-11T23:43:41.553Z,18.30
2018-07-11T23:46:14.795Z,19.87
2018-07-11T23:48:48.093Z,19.35
2018-07-11T23:51:21.342Z,19.05
2018-07-11T23:53:54.620Z,18.62
2018-07-11T23:56:28.860Z,18.75
2018-07-11T23:59:02.187Z,18.40
